createdAt,value
2022-12-31T00:02:22.562Z,2.43
2022-12-31T00:04:51.174Z,2.41
2022-12-31T00:07:17.711Z,2.37
2022-12-31T00:09:44.170Z,2.31
2022-12-31T00:12:10.606Z,2.29
2022-12-31T00:14:37.083Z,2.16
2022-12-31T00:17:03.580Z,2.13
2022-12-31T00:19:30.104Z,2.14
2022-12-31T00:21:56.591Z,2.13
2022-12-31T00:24:23.037Z,2.13
2022-12-31T00:26:49.561Z,2.11
2022-12-31T00:29:16.014Z,2.11
2022-12-31T00:31:42.525Z,2.06
2022-12-31T00:34:09.717Z,2.04
2022-12-31T00:36:37.309Z,2.01
2022-12-31T00:39:05.076Z,1.99
2022-12-31T00:41:31.932Z,1.99
2022-12-31T00:43:58.956Z,1.98
2022-12-31T00:46:25.767Z,1.97
2022-12-31T00:48:52.484Z,1.98
2022-12-31T00:51:20.091Z,1.96
2022-12-31T00:53:46.701Z,1.92
2022-12-31T00:56:14.735Z,1.91
2022-12-31T00:58:41.503Z,1.82
2022-12-31T01:01:12.197Z,1.76
2022-12-31T01:03:39.122Z,1.77
2022-12-31T01:06:05.917Z,1.76
2022-12-31T01:08:32.429Z,1.75
2022-12-31T01:11:18.108Z,1.78
2022-12-31T01:13:47.842Z,1.77
2022-12-31T01:16:14.750Z,1.78
2022-12-31T01:18:41.502Z,1.77
2022-12-31T01:21:09.505Z,1.78
2022-12-31T01:23:36.467Z,1.77
2022-12-31T01:26:05.000Z,1.73
2022-12-31T01:28:31.876Z,1.65
2022-12-31T01:30:58.678Z,1.62
2022-12-31T01:33:25.236Z,1.65
2022-12-31T01:35:51.901Z,1.69
2022-12-31T01:38:18.359Z,1.71
2022-12-31T01:40:44.811Z,1.73
2022-12-31T01:43:16.418Z,1.72
2022-12-31T01:45:43.755Z,1.70
2022-12-31T01:48:12.214Z,1.71
2022-12-31T01:50:40.941Z,1.70
2022-12-31T01:53:08.558Z,1.64
2022-12-31T01:55:47.411Z,1.64
2022-12-31T01:58:15.922Z,1.66
2022-12-31T02:00:42.979Z,1.65
2022-12-31T02:03:09.690Z,1.63
2022-12-31T02:05:39.439Z,1.59
2022-12-31T02:08:06.444Z,1.59
2022-12-31T02:10:32.957Z,1.53
2022-12-31T02:13:00.023Z,1.50
2022-12-31T02:15:49.847Z,1.48
2022-12-31T02:18:25.580Z,1.47
2022-12-31T02:21:10.973Z,1.45
2022-12-31T02:23:56.212Z,1.45
2022-12-31T02:26:41.662Z,1.43
2022-12-31T02:29:31.369Z,1.39
2022-12-31T02:31:59.835Z,1.36
2022-12-31T02:34:43.223Z,1.35
2022-12-31T02:37:12.299Z,1.33
2022-12-31T02:39:39.492Z,1.33
2022-12-31T02:42:05.922Z,1.33
2022-12-31T02:44:34.226Z,1.36
2022-12-31T02:47:03.817Z,1.40
2022-12-31T02:49:45.344Z,1.43
2022-12-31T02:52:20.912Z,1.43
2022-12-31T02:54:53.050Z,1.43
2022-12-31T02:57:40.273Z,1.52
2022-12-31T03:00:27.100Z,1.51
2022-12-31T03:02:55.104Z,1.45
2022-12-31T03:05:24.031Z,1.39
2022-12-31T03:07:50.755Z,1.39
2022-12-31T03:10:17.286Z,1.39
2022-12-31T03:12:47.279Z,1.38
2022-12-31T03:15:20.072Z,1.36
2022-12-31T03:17:49.855Z,1.38
2022-12-31T03:20:35.010Z,1.39
2022-12-31T03:23:01.639Z,1.41
2022-12-31T03:25:39.050Z,1.42
2022-12-31T03:28:07.711Z,1.41
2022-12-31T03:30:34.772Z,1.43
2022-12-31T03:33:01.608Z,1.43
2022-12-31T03:35:29.509Z,1.45
2022-12-31T03:37:56.609Z,1.45
2022-12-31T03:40:23.940Z,1.45
2022-12-31T03:42:50.641Z,1.45
2022-12-31T03:45:17.161Z,1.47
2022-12-31T03:47:43.591Z,1.53
2022-12-31T03:50:10.976Z,1.62
2022-12-31T03:52:37.431Z,1.69
2022-12-31T03:55:04.779Z,1.79
2022-12-31T03:57:31.742Z,1.88
2022-12-31T03:59:58.492Z,1.94
2022-12-31T04:02:29.032Z,1.96
2022-12-31T04:04:55.943Z,1.96
2022-12-31T04:07:22.397Z,1.99
2022-12-31T04:09:48.839Z,2.02
2022-12-31T04:12:15.464Z,2.07
2022-12-31T04:14:42.008Z,2.12
2022-12-31T04:17:08.461Z,2.26
2022-12-31T04:19:34.899Z,2.37
2022-12-31T04:22:01.530Z,2.50
2022-12-31T04:24:28.043Z,2.56
2022-12-31T04:26:54.452Z,2.60
2022-12-31T04:29:20.942Z,2.63
2022-12-31T04:31:47.575Z,2.69
2022-12-31T04:34:14.193Z,2.73
2022-12-31T04:36:40.685Z,2.80
2022-12-31T04:39:07.104Z,2.89
2022-12-31T04:41:33.539Z,2.97
2022-12-31T04:44:00.828Z,3.03
2022-12-31T04:46:28.815Z,3.09
2022-12-31T04:48:55.472Z,3.20
2022-12-31T04:51:22.517Z,3.28
2022-12-31T04:53:49.097Z,3.35
2022-12-31T04:56:16.321Z,3.42
2022-12-31T04:58:42.729Z,3.47
2022-12-31T05:01:09.346Z,3.50
2022-12-31T05:03:36.368Z,3.52
2022-12-31T05:06:07.491Z,3.56
2022-12-31T05:08:34.026Z,3.61
2022-12-31T05:11:00.471Z,3.64
2022-12-31T05:13:32.910Z,3.68
2022-12-31T05:15:59.869Z,3.71
2022-12-31T05:18:26.347Z,3.71
2022-12-31T05:20:52.776Z,3.73
2022-12-31T05:23:19.353Z,3.76
2022-12-31T05:25:47.093Z,3.77
2022-12-31T05:28:13.839Z,3.80
2022-12-31T05:30:40.818Z,3.81
2022-12-31T05:33:07.304Z,3.84
2022-12-31T05:35:33.787Z,3.89
2022-12-31T05:38:00.453Z,3.92
2022-12-31T05:40:27.455Z,3.91
2022-12-31T05:42:54.154Z,3.91
2022-12-31T05:45:25.243Z,3.93
2022-12-31T05:47:55.068Z,3.93
2022-12-31T05:50:21.541Z,3.96
2022-12-31T05:52:47.994Z,4.00
2022-12-31T05:55:14.504Z,4.08
2022-12-31T05:57:41.089Z,4.09
2022-12-31T06:00:09.047Z,4.13
2022-12-31T06:02:35.730Z,4.13
2022-12-31T06:05:02.270Z,4.10
2022-12-31T06:07:28.713Z,4.12
2022-12-31T06:09:55.181Z,4.10
2022-12-31T06:12:21.689Z,4.12
2022-12-31T06:14:48.149Z,4.12
2022-12-31T06:17:14.620Z,4.10
2022-12-31T06:19:41.105Z,4.13
2022-12-31T06:22:07.537Z,4.10
2022-12-31T06:24:33.997Z,4.11
2022-12-31T06:27:00.473Z,4.12
2022-12-31T06:29:26.914Z,4.13
2022-12-31T06:31:53.338Z,4.14
2022-12-31T06:34:19.886Z,4.14
2022-12-31T06:36:46.444Z,4.13
2022-12-31T06:39:12.864Z,4.15
2022-12-31T06:41:39.349Z,4.17
2022-12-31T06:44:06.369Z,4.18
2022-12-31T06:46:32.951Z,4.19
2022-12-31T06:48:59.448Z,4.20
2022-12-31T06:51:25.879Z,4.21
2022-12-31T06:53:52.449Z,4.23
2022-12-31T06:56:20.265Z,4.24
2022-12-31T06:58:47.508Z,4.22
2022-12-31T07:01:26.258Z,4.18
2022-12-31T07:04:00.293Z,4.19
2022-12-31T07:06:31.397Z,4.17
2022-12-31T07:08:57.799Z,4.17
2022-12-31T07:11:28.936Z,4.17
2022-12-31T07:14:18.576Z,4.18
2022-12-31T07:17:05.096Z,4.18
2022-12-31T07:19:57.671Z,4.19
2022-12-31T07:22:24.687Z,4.16
2022-12-31T07:24:51.284Z,4.16
2022-12-31T07:27:36.248Z,4.13
2022-12-31T07:30:13.589Z,4.12
2022-12-31T07:32:58.867Z,4.11
2022-12-31T07:35:35.015Z,4.13
2022-12-31T07:38:18.741Z,4.14
2022-12-31T07:41:09.335Z,4.13
2022-12-31T07:43:41.266Z,4.15
2022-12-31T07:46:26.513Z,4.18
2022-12-31T07:48:53.205Z,4.18
2022-12-31T07:51:19.825Z,4.16
2022-12-31T07:53:46.255Z,4.21
2022-12-31T07:56:13.090Z,4.19
2022-12-31T07:58:58.277Z,4.17
2022-12-31T08:01:39.812Z,4.12
2022-12-31T08:04:06.344Z,4.08
2022-12-31T08:06:38.845Z,4.07
2022-12-31T08:09:11.350Z,4.04
2022-12-31T08:11:37.788Z,4.01
2022-12-31T08:14:08.681Z,4.01
2022-12-31T08:16:35.281Z,4.01
2022-12-31T08:19:01.872Z,4.01
2022-12-31T08:21:48.936Z,4.00
2022-12-31T08:24:21.320Z,4.01
2022-12-31T08:26:53.151Z,4.03
2022-12-31T08:29:34.231Z,4.06
2022-12-31T08:32:11.810Z,4.11
2022-12-31T08:34:54.735Z,4.16
2022-12-31T08:37:24.153Z,4.20
2022-12-31T08:39:50.566Z,4.22
2022-12-31T08:42:26.168Z,4.26
2022-12-31T08:45:18.995Z,4.30
2022-12-31T08:47:48.503Z,4.35
2022-12-31T08:50:15.928Z,4.35
2022-12-31T08:52:42.608Z,4.34
2022-12-31T08:55:12.788Z,4.37
2022-12-31T08:57:42.677Z,4.42
2022-12-31T09:00:17.026Z,4.43
2022-12-31T09:02:58.386Z,4.49
2022-12-31T09:05:46.034Z,4.49
2022-12-31T09:08:12.474Z,4.53
2022-12-31T09:10:42.861Z,4.49
2022-12-31T09:13:25.003Z,4.49
2022-12-31T09:15:59.973Z,4.48
2022-12-31T09:18:32.851Z,4.50
2022-12-31T09:20:59.768Z,4.49
2022-12-31T09:23:26.360Z,4.54
2022-12-31T09:25:59.919Z,4.54
2022-12-31T09:28:35.394Z,4.53
2022-12-31T09:31:37.470Z,4.52
2022-12-31T09:34:16.790Z,4.51
2022-12-31T09:36:46.409Z,4.53
2022-12-31T09:39:17.076Z,4.52
2022-12-31T09:41:55.594Z,4.57
2022-12-31T09:44:37.364Z,4.54
2022-12-31T09:47:33.247Z,4.58
2022-12-31T09:50:08.702Z,4.58
2022-12-31T09:52:44.318Z,4.60
2022-12-31T09:55:29.670Z,4.61
2022-12-31T09:58:11.361Z,4.65
2022-12-31T10:00:37.784Z,4.72
2022-12-31T10:03:04.230Z,4.77
2022-12-31T10:05:43.618Z,4.82
2022-12-31T10:08:28.566Z,4.85
2022-12-31T10:11:05.698Z,4.82
2022-12-31T10:13:42.545Z,4.87
2022-12-31T10:16:17.925Z,4.88
2022-12-31T10:18:49.947Z,4.92
2022-12-31T10:21:31.487Z,4.94
2022-12-31T10:24:07.169Z,4.95
2022-12-31T10:26:53.516Z,4.94
2022-12-31T10:29:23.117Z,4.97
2022-12-31T10:31:49.541Z,5.00
2022-12-31T10:34:25.184Z,5.03
2022-12-31T10:36:53.934Z,5.05
2022-12-31T10:39:39.438Z,5.04
2022-12-31T10:42:24.627Z,5.05
2022-12-31T10:44:54.278Z,5.07
2022-12-31T10:47:33.261Z,5.10
2022-12-31T10:50:18.649Z,5.13
2022-12-31T10:52:57.282Z,5.14
2022-12-31T10:55:26.770Z,5.18
2022-12-31T10:58:08.558Z,5.22
2022-12-31T11:00:48.330Z,5.26
2022-12-31T11:03:32.965Z,5.27
2022-12-31T11:06:19.671Z,5.30
2022-12-31T11:08:52.017Z,5.32
2022-12-31T11:11:33.713Z,5.34
2022-12-31T11:14:06.349Z,5.35
2022-12-31T11:16:48.837Z,5.31
2022-12-31T11:19:27.570Z,5.34
2022-12-31T11:22:00.004Z,5.33
2022-12-31T11:24:29.616Z,5.33
2022-12-31T11:26:56.061Z,5.34
2022-12-31T11:29:22.718Z,5.35
2022-12-31T11:31:49.124Z,5.35
2022-12-31T11:34:18.683Z,5.34
2022-12-31T11:36:45.577Z,5.30
2022-12-31T11:39:31.412Z,5.29
2022-12-31T11:42:16.314Z,5.27
2022-12-31T11:44:51.680Z,5.28
2022-12-31T11:47:38.084Z,5.26
2022-12-31T11:50:26.373Z,5.26
2022-12-31T11:53:31.185Z,5.28
2022-12-31T11:56:00.422Z,5.27
2022-12-31T11:58:28.854Z,5.27
2022-12-31T12:01:09.403Z,5.27
2022-12-31T12:03:42.431Z,5.30
2022-12-31T12:06:13.505Z,5.29
2022-12-31T12:08:40.560Z,5.29
2022-12-31T12:11:13.641Z,5.27
2022-12-31T12:13:40.111Z,5.29
2022-12-31T12:16:07.470Z,5.24
2022-12-31T12:18:38.064Z,5.24
2022-12-31T12:21:12.609Z,5.22
2022-12-31T12:23:39.532Z,5.21
2022-12-31T12:26:06.530Z,5.20
2022-12-31T12:28:44.653Z,5.20
2022-12-31T12:31:19.132Z,5.23
2022-12-31T12:33:46.157Z,5.24
2022-12-31T12:36:14.022Z,5.29
2022-12-31T12:38:40.748Z,5.35
2022-12-31T12:41:11.282Z,5.38
2022-12-31T12:43:38.340Z,5.36
2022-12-31T12:46:18.609Z,5.40
2022-12-31T12:48:47.809Z,5.46
2022-12-31T12:51:33.007Z,5.50
2022-12-31T12:54:18.419Z,5.52
2022-12-31T12:57:03.786Z,5.53
2022-12-31T12:59:36.290Z,5.50
2022-12-31T13:02:02.876Z,5.50
2022-12-31T13:04:34.713Z,5.50
2022-12-31T13:07:11.953Z,5.50
2022-12-31T13:09:56.980Z,5.45
2022-12-31T13:12:56.882Z,5.47
2022-12-31T13:15:39.708Z,5.45
2022-12-31T13:18:18.237Z,5.42
2022-12-31T13:20:50.164Z,5.44
2022-12-31T13:23:16.640Z,5.50
2022-12-31T13:25:43.176Z,5.49
2022-12-31T13:28:11.833Z,5.49
2022-12-31T13:30:40.900Z,5.49
2022-12-31T13:33:13.920Z,5.52
2022-12-31T13:35:44.781Z,5.49
2022-12-31T13:38:23.717Z,5.44
2022-12-31T13:41:10.539Z,5.40
2022-12-31T13:43:37.066Z,5.36
2022-12-31T13:46:06.543Z,5.40
2022-12-31T13:48:36.526Z,5.40
2022-12-31T13:51:11.819Z,5.41
2022-12-31T13:54:01.772Z,5.38
2022-12-31T13:56:31.480Z,5.36
2022-12-31T13:59:01.619Z,5.38
2022-12-31T14:01:34.022Z,5.41
2022-12-31T14:04:00.808Z,5.41
2022-12-31T14:06:49.478Z,5.37
2022-12-31T14:09:26.314Z,5.37
2022-12-31T14:12:11.216Z,5.41
2022-12-31T14:14:42.302Z,5.31
2022-12-31T14:17:17.633Z,5.33
2022-12-31T14:20:03.836Z,5.35
2022-12-31T14:22:36.162Z,5.34
2022-12-31T14:25:04.063Z,5.33
2022-12-31T14:27:34.259Z,5.32
2022-12-31T14:30:00.767Z,5.33
2022-12-31T14:32:37.091Z,5.33
2022-12-31T14:35:03.523Z,5.33
2022-12-31T14:37:48.674Z,5.26
2022-12-31T14:40:23.966Z,5.27
2022-12-31T14:42:50.380Z,5.24
2022-12-31T14:45:36.654Z,5.25
2022-12-31T14:48:21.603Z,5.27
2022-12-31T14:50:48.764Z,5.23
2022-12-31T14:53:18.709Z,5.21
2022-12-31T14:55:55.982Z,5.21
2022-12-31T14:58:28.901Z,5.19
2022-12-31T15:01:16.047Z,5.12
2022-12-31T15:03:45.692Z,5.06
2022-12-31T15:06:18.879Z,5.01
2022-12-31T15:09:08.300Z,4.97
2022-12-31T15:11:35.192Z,4.90
2022-12-31T15:14:01.596Z,4.86
2022-12-31T15:16:43.454Z,4.82
2022-12-31T15:19:09.908Z,4.77
2022-12-31T15:21:39.154Z,4.72
2022-12-31T15:24:19.361Z,4.65
2022-12-31T15:26:48.307Z,4.60
2022-12-31T15:29:34.498Z,4.56
2022-12-31T15:32:02.746Z,4.55
2022-12-31T15:34:34.938Z,4.49
2022-12-31T15:37:03.283Z,4.46
2022-12-31T15:39:32.750Z,4.44
2022-12-31T15:44:50.603Z,4.37
2022-12-31T15:47:31.446Z,4.35
2022-12-31T15:50:03.862Z,4.34
2022-12-31T15:52:33.040Z,4.33
2022-12-31T15:55:00.389Z,4.33
2022-12-31T15:57:34.193Z,4.32
2022-12-31T16:00:02.272Z,4.31
2022-12-31T16:02:29.177Z,4.31
2022-12-31T16:04:55.948Z,4.29
2022-12-31T16:07:23.674Z,4.29
2022-12-31T16:09:52.896Z,4.28
2022-12-31T16:12:20.783Z,4.28
2022-12-31T16:14:50.512Z,4.27
2022-12-31T16:17:23.275Z,4.29
2022-12-31T16:19:49.718Z,4.27
2022-12-31T16:22:17.690Z,4.29
2022-12-31T16:25:10.825Z,4.28
2022-12-31T16:27:31.364Z,4.26
2022-12-31T16:29:59.877Z,4.24
2022-12-31T16:32:26.650Z,4.20
2022-12-31T16:34:54.857Z,4.15
2022-12-31T16:37:22.882Z,4.10
2022-12-31T16:39:58.185Z,4.13
2022-12-31T16:42:25.388Z,4.14
2022-12-31T16:44:52.715Z,4.17
2022-12-31T16:47:23.556Z,4.21
2022-12-31T16:50:00.149Z,4.25
2022-12-31T16:52:35.618Z,4.26
2022-12-31T16:55:07.157Z,4.28
2022-12-31T16:57:34.553Z,4.30
2022-12-31T17:00:03.059Z,4.33
2022-12-31T17:02:35.511Z,4.33
2022-12-31T17:05:02.290Z,4.34
2022-12-31T17:07:31.693Z,4.36
2022-12-31T17:10:21.495Z,4.37
2022-12-31T17:15:40.876Z,4.20
2022-12-31T17:18:07.847Z,4.22
2022-12-31T17:20:34.667Z,4.25
2022-12-31T17:23:03.687Z,4.24
2022-12-31T17:25:32.138Z,4.25
2022-12-31T17:28:18.345Z,4.25
2022-12-31T17:30:44.916Z,4.24
2022-12-31T17:33:11.340Z,4.24
2022-12-31T17:35:42.257Z,4.19
2022-12-31T17:38:18.039Z,4.19
2022-12-31T17:40:53.023Z,4.19
2022-12-31T17:43:21.415Z,4.21
2022-12-31T17:45:50.162Z,4.22
2022-12-31T17:48:17.621Z,4.23
2022-12-31T17:50:48.115Z,4.24
2022-12-31T17:53:14.892Z,4.23
2022-12-31T17:55:42.263Z,4.21
2022-12-31T17:58:16.428Z,4.19
2022-12-31T18:00:42.888Z,4.18
2022-12-31T18:03:09.464Z,4.16
2022-12-31T18:05:35.961Z,4.15
2022-12-31T18:08:02.547Z,4.18
2022-12-31T18:10:30.149Z,4.18
2022-12-31T18:12:58.866Z,4.14
2022-12-31T18:15:25.319Z,4.16
2022-12-31T18:17:51.807Z,4.17
2022-12-31T18:20:18.495Z,4.17
2022-12-31T18:22:45.297Z,4.15
2022-12-31T18:25:14.036Z,4.17
2022-12-31T18:27:42.114Z,4.18
2022-12-31T18:30:11.576Z,4.18
2022-12-31T18:32:39.987Z,4.18
2022-12-31T18:35:32.882Z,4.23
2022-12-31T18:37:58.633Z,4.25
2022-12-31T18:40:25.240Z,4.26
2022-12-31T18:42:51.686Z,4.29
2022-12-31T18:45:19.643Z,4.31
2022-12-31T18:47:46.240Z,4.30
2022-12-31T18:50:14.711Z,4.30
2022-12-31T18:52:41.155Z,4.31
2022-12-31T18:55:30.387Z,4.32
2022-12-31T18:57:56.879Z,4.32
2022-12-31T19:00:23.746Z,4.32
2022-12-31T19:02:50.265Z,4.28
2022-12-31T19:05:19.842Z,4.30
2022-12-31T19:07:46.304Z,4.25
2022-12-31T19:10:16.812Z,4.27
2022-12-31T19:12:43.641Z,4.25
2022-12-31T19:15:22.531Z,4.27
2022-12-31T19:17:48.986Z,4.27
2022-12-31T19:20:15.598Z,4.28
2022-12-31T19:22:42.070Z,4.28
2022-12-31T19:25:20.705Z,4.27
2022-12-31T19:27:47.582Z,4.28
2022-12-31T19:30:18.597Z,4.25
2022-12-31T19:32:45.167Z,4.16
2022-12-31T19:35:12.799Z,4.14
2022-12-31T19:37:39.516Z,4.16
2022-12-31T19:40:06.298Z,4.17
2022-12-31T19:42:32.757Z,4.14
2022-12-31T19:44:59.240Z,4.15
2022-12-31T19:47:25.669Z,4.19
2022-12-31T19:49:52.111Z,4.22
2022-12-31T19:52:18.565Z,4.26
2022-12-31T19:54:45.021Z,4.30
2022-12-31T19:57:11.440Z,4.33
2022-12-31T19:59:37.882Z,4.35
2022-12-31T20:02:04.538Z,4.33
2022-12-31T20:04:31.164Z,4.32
2022-12-31T20:06:57.613Z,4.29
2022-12-31T20:09:24.060Z,4.27
2022-12-31T20:11:50.493Z,4.28
2022-12-31T20:14:16.964Z,4.28
2022-12-31T20:16:43.478Z,4.27
2022-12-31T20:19:10.308Z,4.29
2022-12-31T20:21:36.830Z,4.31
2022-12-31T20:24:03.338Z,4.32
2022-12-31T20:26:29.764Z,4.33
2022-12-31T20:28:56.176Z,4.33
2022-12-31T20:31:24.514Z,4.32
2022-12-31T20:33:50.988Z,4.29
2022-12-31T20:36:17.767Z,4.25
2022-12-31T20:38:44.343Z,4.27
2022-12-31T20:41:12.105Z,4.32
2022-12-31T20:43:38.711Z,4.36
2022-12-31T20:46:15.642Z,4.35
2022-12-31T20:48:43.039Z,4.35
2022-12-31T20:51:09.534Z,4.33
2022-12-31T20:53:35.974Z,4.32
2022-12-31T20:56:06.160Z,4.34
2022-12-31T20:58:32.660Z,4.32
2022-12-31T21:00:59.376Z,4.29
2022-12-31T21:04:02.820Z,4.33
2022-12-31T21:06:12.560Z,4.34
2022-12-31T21:08:39.442Z,4.34
2022-12-31T21:11:25.245Z,4.34
2022-12-31T21:13:51.655Z,4.34
2022-12-31T21:16:18.276Z,4.32
2022-12-31T21:18:44.994Z,4.30
2022-12-31T21:21:12.155Z,4.29
2022-12-31T21:23:38.617Z,4.30
2022-12-31T21:26:05.375Z,4.26
2022-12-31T21:28:32.287Z,4.27
2022-12-31T21:30:59.205Z,4.27
2022-12-31T21:33:25.697Z,4.28
2022-12-31T21:35:54.233Z,4.27
2022-12-31T21:38:21.776Z,4.27
2022-12-31T21:40:48.704Z,4.26
2022-12-31T21:43:15.964Z,4.25
2022-12-31T21:45:42.420Z,4.27
2022-12-31T21:48:22.041Z,4.29
2022-12-31T21:50:50.029Z,4.24
2022-12-31T21:53:23.471Z,4.22
2022-12-31T21:56:09.026Z,4.23
2022-12-31T21:58:36.657Z,4.23
2022-12-31T22:01:21.640Z,4.23
2022-12-31T22:03:48.414Z,4.22
2022-12-31T22:06:20.450Z,4.20
2022-12-31T22:08:47.979Z,4.22
2022-12-31T22:11:14.848Z,4.20
2022-12-31T22:13:41.712Z,4.21
2022-12-31T22:16:08.281Z,4.19
2022-12-31T22:18:38.722Z,4.17
2022-12-31T22:21:19.203Z,4.15
2022-12-31T22:23:47.631Z,4.17
2022-12-31T22:26:15.134Z,4.18
2022-12-31T22:28:42.939Z,4.18
2022-12-31T22:31:11.345Z,4.18
2022-12-31T22:33:37.784Z,4.20
2022-12-31T22:36:05.571Z,4.19
2022-12-31T22:38:32.705Z,4.19
2022-12-31T22:41:03.197Z,4.19
2022-12-31T22:43:30.766Z,4.18
2022-12-31T22:45:57.269Z,4.21
2022-12-31T22:48:23.706Z,4.20
2022-12-31T22:50:59.342Z,4.13
2022-12-31T22:53:25.795Z,4.12
2022-12-31T22:55:54.529Z,4.14
2022-12-31T22:58:21.714Z,4.13
2022-12-31T23:00:48.181Z,4.16
2022-12-31T23:03:14.713Z,4.15
2022-12-31T23:05:41.623Z,4.15
2022-12-31T23:08:20.571Z,4.12
2022-12-31T23:11:08.817Z,4.09
2022-12-31T23:14:01.329Z,4.09
2022-12-31T23:16:47.695Z,4.10
2022-12-31T23:19:33.646Z,4.09
2022-12-31T23:22:19.097Z,4.10
2022-12-31T23:24:45.531Z,4.10
2022-12-31T23:27:11.999Z,4.10
2022-12-31T23:29:45.605Z,4.06
2022-12-31T23:32:13.458Z,4.04
2022-12-31T23:34:39.909Z,4.03
2022-12-31T23:37:06.337Z,3.92
2022-12-31T23:39:32.825Z,3.93
2022-12-31T23:42:00.249Z,3.96
2022-12-31T23:44:26.871Z,4.00
2022-12-31T23:46:53.367Z,4.01
2022-12-31T23:49:19.820Z,4.02
2022-12-31T23:51:46.261Z,4.03
2022-12-31T23:54:15.998Z,4.03
2022-12-31T23:56:42.559Z,4.05
2022-12-31T23:59:09.831Z,4.04
